Decoded Metar for EBBE (BEAUVECHAIN in BELGIUM) (IATA:N/A) | Meteo·Mobile Aviation Weather
aviador You're here:

EBBE Decoded Metar

BEAUVECHAIN in BELGIUM
Report Time2018-11-17 01:55:00
UTC Time2018-11-17 02:10:05
Flight Rules vfr VFR
WindVRB at 01 kt
Visibility9999 m
Phenomena:N/A
Clouds:N/A
Expected CloudBase > 800 ft AGL from Temp-Dew spread
CeilingNone
Temp02°C (ISA -12)
Dew Point00°C (87% RH)
AAT-0.3°C
QNH1028 hPa
Density Alt-1,486 ft
Elevation417 ft
Report Wrong Elevation
Raw Report
EBBE 170155Z AUTO VRB01KT 9999 NCD 02/00 Q1028 BLU=

Extra information for EBBE:More info

Metar Taf Metar & Taf Last 4 Metars F.Rules Stats Wind Profile Meteogram Temp Stats Airport Information Weather charts Add Link Nearby VenuesMetar ALERT Operation Metar Decoded Social comments